sensor_id;sensor_type;location;lat;lon;timestamp;P1;durP1;ratioP1;P2;durP2;ratioP2
47796;SDS011;33558;50.922;14.068;2024-02-16T00:01:49;36.13;;;19.77;;
47796;SDS011;33558;50.922;14.068;2024-02-16T00:04:15;36.10;;;20.47;;
47796;SDS011;33558;50.922;14.068;2024-02-16T00:06:42;40.57;;;20.97;;
47796;SDS011;33558;50.922;14.068;2024-02-16T00:09:09;44.50;;;22.03;;
47796;SDS011;33558;50.922;14.068;2024-02-16T00:11:36;40.97;;;21.47;;
47796;SDS011;33558;50.922;14.068;2024-02-16T00:14:02;161.03;;;27.53;;
47796;SDS011;33558;50.922;14.068;2024-02-16T00:16:30;40.07;;;20.43;;
47796;SDS011;33558;50.922;14.068;2024-02-16T00:18:57;40.80;;;19.67;;
47796;SDS011;33558;50.922;14.068;2024-02-16T00:21:24;56.90;;;24.37;;
47796;SDS011;33558;50.922;14.068;2024-02-16T00:23:50;39.60;;;21.47;;
47796;SDS011;33558;50.922;14.068;2024-02-16T00:26:17;53.30;;;23.77;;
47796;SDS011;33558;50.922;14.068;2024-02-16T00:28:44;137.17;;;26.83;;
47796;SDS011;33558;50.922;14.068;2024-02-16T00:31:11;183.23;;;28.30;;
47796;SDS011;33558;50.922;14.068;2024-02-16T00:33:39;39.60;;;19.83;;
47796;SDS011;33558;50.922;14.068;2024-02-16T00:36:06;45.33;;;20.40;;
47796;SDS011;33558;50.922;14.068;2024-02-16T00:38:35;43.73;;;20.53;;
47796;SDS011;33558;50.922;14.068;2024-02-16T00:41:01;37.20;;;19.97;;
47796;SDS011;33558;50.922;14.068;2024-02-16T00:43:28;38.50;;;18.83;;
47796;SDS011;33558;50.922;14.068;2024-02-16T00:45:55;44.73;;;20.83;;
47796;SDS011;33558;50.922;14.068;2024-02-16T00:48:21;45.03;;;20.80;;
47796;SDS011;33558;50.922;14.068;2024-02-16T00:50:49;37.70;;;18.60;;
47796;SDS011;33558;50.922;14.068;2024-02-16T00:53:16;37.80;;;19.30;;
47796;SDS011;33558;50.922;14.068;2024-02-16T00:55:44;37.23;;;19.60;;
47796;SDS011;33558;50.922;14.068;2024-02-16T00:58:11;199.97;;;31.10;;
47796;SDS011;33558;50.922;14.068;2024-02-16T01:00:37;39.27;;;18.93;;
47796;SDS011;33558;50.922;14.068;2024-02-16T01:03:04;306.63;;;29.27;;
47796;SDS011;33558;50.922;14.068;2024-02-16T01:05:31;65.93;;;20.33;;
47796;SDS011;33558;50.922;14.068;2024-02-16T01:07:59;52.10;;;24.30;;
47796;SDS011;33558;50.922;14.068;2024-02-16T01:10:25;50.03;;;23.17;;
47796;SDS011;33558;50.922;14.068;2024-02-16T01:12:52;43.53;;;21.00;;
47796;SDS011;33558;50.922;14.068;2024-02-16T01:15:21;52.90;;;22.27;;
47796;SDS011;33558;50.922;14.068;2024-02-16T01:17:47;43.23;;;19.90;;
47796;SDS011;33558;50.922;14.068;2024-02-16T01:20:15;204.10;;;29.13;;
47796;SDS011;33558;50.922;14.068;2024-02-16T01:22:42;51.27;;;24.07;;
47796;SDS011;33558;50.922;14.068;2024-02-16T01:25:11;59.73;;;25.43;;
47796;SDS011;33558;50.922;14.068;2024-02-16T01:27:37;58.73;;;26.00;;
47796;SDS011;33558;50.922;14.068;2024-02-16T01:30:06;54.53;;;23.37;;
47796;SDS011;33558;50.922;14.068;2024-02-16T01:32:33;34.53;;;18.63;;
47796;SDS011;33558;50.922;14.068;2024-02-16T01:35:00;40.37;;;21.43;;
47796;SDS011;33558;50.922;14.068;2024-02-16T01:37:27;51.57;;;24.40;;
47796;SDS011;33558;50.922;14.068;2024-02-16T01:39:53;57.10;;;25.53;;
47796;SDS011;33558;50.922;14.068;2024-02-16T01:42:21;48.63;;;23.90;;
47796;SDS011;33558;50.922;14.068;2024-02-16T01:44:48;59.23;;;27.83;;
47796;SDS011;33558;50.922;14.068;2024-02-16T01:47:15;62.27;;;27.50;;
47796;SDS011;33558;50.922;14.068;2024-02-16T01:49:42;66.73;;;31.43;;
47796;SDS011;33558;50.922;14.068;2024-02-16T01:52:09;56.40;;;27.20;;
47796;SDS011;33558;50.922;14.068;2024-02-16T01:54:37;58.60;;;28.60;;
47796;SDS011;33558;50.922;14.068;2024-02-16T01:57:04;67.53;;;31.40;;
47796;SDS011;33558;50.922;14.068;2024-02-16T01:59:34;63.70;;;31.67;;
47796;SDS011;33558;50.922;14.068;2024-02-16T02:02:02;57.87;;;28.43;;
47796;SDS011;33558;50.922;14.068;2024-02-16T02:04:28;60.40;;;30.20;;
47796;SDS011;33558;50.922;14.068;2024-02-16T02:06:55;59.37;;;29.47;;
47796;SDS011;33558;50.922;14.068;2024-02-16T02:09:22;58.77;;;30.73;;
47796;SDS011;33558;50.922;14.068;2024-02-16T02:11:48;51.70;;;27.80;;
47796;SDS011;33558;50.922;14.068;2024-02-16T02:14:17;64.77;;;30.47;;
47796;SDS011;33558;50.922;14.068;2024-02-16T02:16:45;63.67;;;29.73;;
47796;SDS011;33558;50.922;14.068;2024-02-16T02:19:11;51.10;;;28.37;;
47796;SDS011;33558;50.922;14.068;2024-02-16T02:21:38;69.23;;;32.67;;
47796;SDS011;33558;50.922;14.068;2024-02-16T02:24:06;53.30;;;28.17;;
47796;SDS011;33558;50.922;14.068;2024-02-16T02:26:33;54.07;;;28.53;;
47796;SDS011;33558;50.922;14.068;2024-02-16T02:28:59;56.13;;;28.03;;
47796;SDS011;33558;50.922;14.068;2024-02-16T02:31:26;51.80;;;27.73;;
47796;SDS011;33558;50.922;14.068;2024-02-16T02:33:52;55.43;;;29.43;;
47796;SDS011;33558;50.922;14.068;2024-02-16T02:36:19;53.67;;;28.23;;
47796;SDS011;33558;50.922;14.068;2024-02-16T02:38:47;61.33;;;30.50;;
47796;SDS011;33558;50.922;14.068;2024-02-16T02:41:15;47.50;;;27.47;;
47796;SDS011;33558;50.922;14.068;2024-02-16T02:43:44;48.50;;;27.97;;
47796;SDS011;33558;50.922;14.068;2024-02-16T02:46:14;47.23;;;27.50;;
47796;SDS011;33558;50.922;14.068;2024-02-16T02:48:41;46.90;;;27.90;;
47796;SDS011;33558;50.922;14.068;2024-02-16T02:51:08;48.10;;;27.97;;
47796;SDS011;33558;50.922;14.068;2024-02-16T02:53:35;44.60;;;27.60;;
47796;SDS011;33558;50.922;14.068;2024-02-16T02:56:01;47.27;;;28.60;;
47796;SDS011;33558;50.922;14.068;2024-02-16T02:58:29;45.47;;;28.07;;
47796;SDS011;33558;50.922;14.068;2024-02-16T03:00:56;45.90;;;27.53;;
47796;SDS011;33558;50.922;14.068;2024-02-16T03:03:23;42.90;;;26.00;;
47796;SDS011;33558;50.922;14.068;2024-02-16T03:05:49;39.83;;;24.73;;
47796;SDS011;33558;50.922;14.068;2024-02-16T03:08:16;39.23;;;26.43;;
47796;SDS011;33558;50.922;14.068;2024-02-16T03:10:43;38.33;;;25.53;;
47796;SDS011;33558;50.922;14.068;2024-02-16T03:13:10;39.87;;;26.70;;
47796;SDS011;33558;50.922;14.068;2024-02-16T03:15:39;38.70;;;26.37;;
47796;SDS011;33558;50.922;14.068;2024-02-16T03:18:06;37.90;;;24.87;;
47796;SDS011;33558;50.922;14.068;2024-02-16T03:20:33;38.93;;;25.40;;
47796;SDS011;33558;50.922;14.068;2024-02-16T03:23:00;34.33;;;23.57;;
47796;SDS011;33558;50.922;14.068;2024-02-16T03:25:28;37.63;;;23.87;;
47796;SDS011;33558;50.922;14.068;2024-02-16T03:27:54;37.27;;;23.47;;
47796;SDS011;33558;50.922;14.068;2024-02-16T03:30:21;35.90;;;23.47;;
47796;SDS011;33558;50.922;14.068;2024-02-16T03:32:49;34.23;;;22.40;;
47796;SDS011;33558;50.922;14.068;2024-02-16T03:35:17;36.60;;;23.07;;
47796;SDS011;33558;50.922;14.068;2024-02-16T03:37:43;36.07;;;23.60;;
47796;SDS011;33558;50.922;14.068;2024-02-16T03:40:10;32.23;;;22.77;;
47796;SDS011;33558;50.922;14.068;2024-02-16T03:42:37;32.60;;;22.03;;
47796;SDS011;33558;50.922;14.068;2024-02-16T03:45:05;30.43;;;21.53;;
47796;SDS011;33558;50.922;14.068;2024-02-16T03:47:33;33.97;;;22.43;;
47796;SDS011;33558;50.922;14.068;2024-02-16T03:50:01;31.20;;;21.53;;
47796;SDS011;33558;50.922;14.068;2024-02-16T03:52:27;31.57;;;20.93;;
47796;SDS011;33558;50.922;14.068;2024-02-16T03:54:54;30.47;;;21.43;;
47796;SDS011;33558;50.922;14.068;2024-02-16T03:57:21;29.53;;;20.90;;
47796;SDS011;33558;50.922;14.068;2024-02-16T03:59:47;32.03;;;20.80;;
47796;SDS011;33558;50.922;14.068;2024-02-16T04:02:14;29.97;;;20.37;;
47796;SDS011;33558;50.922;14.068;2024-02-16T04:04:41;28.43;;;19.43;;
47796;SDS011;33558;50.922;14.068;2024-02-16T04:07:09;30.50;;;20.87;;
47796;SDS011;33558;50.922;14.068;2024-02-16T04:09:35;29.00;;;19.10;;
47796;SDS011;33558;50.922;14.068;2024-02-16T04:12:02;26.77;;;18.20;;
47796;SDS011;33558;50.922;14.068;2024-02-16T04:14:29;29.37;;;20.17;;
47796;SDS011;33558;50.922;14.068;2024-02-16T04:16:56;31.27;;;20.43;;
47796;SDS011;33558;50.922;14.068;2024-02-16T04:19:23;29.43;;;20.07;;
47796;SDS011;33558;50.922;14.068;2024-02-16T04:21:49;29.33;;;19.83;;
47796;SDS011;33558;50.922;14.068;2024-02-16T04:24:17;31.40;;;20.37;;
47796;SDS011;33558;50.922;14.068;2024-02-16T04:26:44;31.37;;;19.63;;
47796;SDS011;33558;50.922;14.068;2024-02-16T04:29:11;28.13;;;19.57;;
47796;SDS011;33558;50.922;14.068;2024-02-16T04:31:38;31.63;;;19.77;;
47796;SDS011;33558;50.922;14.068;2024-02-16T04:34:07;30.53;;;19.83;;
47796;SDS011;33558;50.922;14.068;2024-02-16T04:36:34;26.97;;;19.17;;
47796;SDS011;33558;50.922;14.068;2024-02-16T04:39:00;28.87;;;20.20;;
47796;SDS011;33558;50.922;14.068;2024-02-16T04:41:28;31.23;;;20.30;;
47796;SDS011;33558;50.922;14.068;2024-02-16T04:43:55;29.57;;;20.17;;
47796;SDS011;33558;50.922;14.068;2024-02-16T04:46:22;30.77;;;19.90;;
47796;SDS011;33558;50.922;14.068;2024-02-16T04:48:48;28.43;;;19.17;;
47796;SDS011;33558;50.922;14.068;2024-02-16T04:51:15;27.20;;;18.87;;
47796;SDS011;33558;50.922;14.068;2024-02-16T04:53:42;28.43;;;19.67;;
47796;SDS011;33558;50.922;14.068;2024-02-16T04:56:08;27.87;;;18.73;;
47796;SDS011;33558;50.922;14.068;2024-02-16T04:58:39;29.07;;;19.97;;
47796;SDS011;33558;50.922;14.068;2024-02-16T05:01:06;27.97;;;19.83;;
47796;SDS011;33558;50.922;14.068;2024-02-16T05:03:33;31.13;;;19.83;;
47796;SDS011;33558;50.922;14.068;2024-02-16T05:05:59;30.97;;;20.03;;
47796;SDS011;33558;50.922;14.068;2024-02-16T05:08:26;29.03;;;19.47;;
47796;SDS011;33558;50.922;14.068;2024-02-16T05:10:52;29.37;;;19.30;;
47796;SDS011;33558;50.922;14.068;2024-02-16T05:13:19;27.63;;;18.83;;
47796;SDS011;33558;50.922;14.068;2024-02-16T05:15:47;28.97;;;18.53;;
47796;SDS011;33558;50.922;14.068;2024-02-16T05:18:14;27.33;;;19.40;;
47796;SDS011;33558;50.922;14.068;2024-02-16T05:20:41;28.47;;;19.37;;
47796;SDS011;33558;50.922;14.068;2024-02-16T05:23:08;26.70;;;18.23;;
47796;SDS011;33558;50.922;14.068;2024-02-16T05:25:35;25.83;;;17.23;;
47796;SDS011;33558;50.922;14.068;2024-02-16T05:28:02;28.73;;;19.17;;
47796;SDS011;33558;50.922;14.068;2024-02-16T05:30:29;28.90;;;19.03;;
47796;SDS011;33558;50.922;14.068;2024-02-16T05:32:58;27.37;;;18.50;;
47796;SDS011;33558;50.922;14.068;2024-02-16T05:35:24;26.83;;;18.80;;
47796;SDS011;33558;50.922;14.068;2024-02-16T05:37:54;27.90;;;19.80;;
47796;SDS011;33558;50.922;14.068;2024-02-16T05:40:21;26.27;;;18.97;;
47796;SDS011;33558;50.922;14.068;2024-02-16T05:42:50;28.10;;;19.37;;
47796;SDS011;33558;50.922;14.068;2024-02-16T05:45:17;27.60;;;17.83;;
47796;SDS011;33558;50.922;14.068;2024-02-16T05:47:44;31.77;;;19.43;;
47796;SDS011;33558;50.922;14.068;2024-02-16T05:50:13;26.80;;;19.10;;
47796;SDS011;33558;50.922;14.068;2024-02-16T05:52:40;27.00;;;18.20;;
47796;SDS011;33558;50.922;14.068;2024-02-16T05:55:07;27.73;;;19.03;;
47796;SDS011;33558;50.922;14.068;2024-02-16T05:57:34;25.67;;;17.90;;
47796;SDS011;33558;50.922;14.068;2024-02-16T06:00:01;25.67;;;18.03;;
47796;SDS011;33558;50.922;14.068;2024-02-16T06:02:30;24.10;;;17.57;;
47796;SDS011;33558;50.922;14.068;2024-02-16T06:04:57;25.93;;;18.40;;
47796;SDS011;33558;50.922;14.068;2024-02-16T06:07:25;27.87;;;18.70;;
47796;SDS011;33558;50.922;14.068;2024-02-16T06:09:51;26.30;;;19.33;;
47796;SDS011;33558;50.922;14.068;2024-02-16T06:12:19;28.27;;;18.80;;
47796;SDS011;33558;50.922;14.068;2024-02-16T06:14:45;27.23;;;18.13;;
47796;SDS011;33558;50.922;14.068;2024-02-16T06:17:13;27.47;;;17.37;;
47796;SDS011;33558;50.922;14.068;2024-02-16T06:19:40;28.47;;;19.10;;
47796;SDS011;33558;50.922;14.068;2024-02-16T06:22:06;26.10;;;18.77;;
47796;SDS011;33558;50.922;14.068;2024-02-16T06:24:35;29.27;;;20.67;;
47796;SDS011;33558;50.922;14.068;2024-02-16T06:27:01;31.23;;;20.30;;
47796;SDS011;33558;50.922;14.068;2024-02-16T06:29:29;29.70;;;19.03;;
47796;SDS011;33558;50.922;14.068;2024-02-16T06:31:56;28.43;;;19.93;;
47796;SDS011;33558;50.922;14.068;2024-02-16T06:34:22;28.17;;;19.13;;
47796;SDS011;33558;50.922;14.068;2024-02-16T06:36:49;30.07;;;19.57;;
47796;SDS011;33558;50.922;14.068;2024-02-16T06:39:16;28.83;;;18.90;;
47796;SDS011;33558;50.922;14.068;2024-02-16T06:41:45;30.20;;;21.07;;
47796;SDS011;33558;50.922;14.068;2024-02-16T06:44:12;29.43;;;19.30;;
47796;SDS011;33558;50.922;14.068;2024-02-16T06:46:39;29.33;;;19.40;;
47796;SDS011;33558;50.922;14.068;2024-02-16T06:49:06;30.53;;;20.70;;
47796;SDS011;33558;50.922;14.068;2024-02-16T06:51:32;25.70;;;18.17;;
47796;SDS011;33558;50.922;14.068;2024-02-16T06:53:59;33.13;;;19.73;;
47796;SDS011;33558;50.922;14.068;2024-02-16T06:56:26;25.90;;;18.40;;
47796;SDS011;33558;50.922;14.068;2024-02-16T06:58:54;28.73;;;19.07;;
47796;SDS011;33558;50.922;14.068;2024-02-16T07:01:20;31.30;;;19.60;;
47796;SDS011;33558;50.922;14.068;2024-02-16T07:03:47;28.73;;;20.70;;
47796;SDS011;33558;50.922;14.068;2024-02-16T07:06:13;29.93;;;19.83;;
47796;SDS011;33558;50.922;14.068;2024-02-16T07:08:40;28.47;;;18.77;;
47796;SDS011;33558;50.922;14.068;2024-02-16T07:11:07;32.93;;;21.40;;
47796;SDS011;33558;50.922;14.068;2024-02-16T07:13:37;28.40;;;19.50;;
47796;SDS011;33558;50.922;14.068;2024-02-16T07:16:06;27.37;;;19.27;;
47796;SDS011;33558;50.922;14.068;2024-02-16T07:18:33;27.93;;;18.93;;
47796;SDS011;33558;50.922;14.068;2024-02-16T07:20:59;29.77;;;20.40;;
47796;SDS011;33558;50.922;14.068;2024-02-16T07:23:26;28.80;;;20.57;;
47796;SDS011;33558;50.922;14.068;2024-02-16T07:25:53;29.73;;;18.57;;
47796;SDS011;33558;50.922;14.068;2024-02-16T07:28:21;28.83;;;18.93;;
47796;SDS011;33558;50.922;14.068;2024-02-16T07:30:48;28.17;;;19.57;;
47796;SDS011;33558;50.922;14.068;2024-02-16T07:33:17;30.17;;;20.50;;
47796;SDS011;33558;50.922;14.068;2024-02-16T07:35:43;27.43;;;19.33;;
47796;SDS011;33558;50.922;14.068;2024-02-16T07:38:10;27.07;;;18.73;;
47796;SDS011;33558;50.922;14.068;2024-02-16T07:40:37;26.37;;;18.47;;
47796;SDS011;33558;50.922;14.068;2024-02-16T07:43:03;26.57;;;18.07;;
47796;SDS011;33558;50.922;14.068;2024-02-16T07:45:30;29.10;;;17.87;;
47796;SDS011;33558;50.922;14.068;2024-02-16T07:47:57;26.33;;;19.10;;
47796;SDS011;33558;50.922;14.068;2024-02-16T07:50:25;26.93;;;18.63;;
47796;SDS011;33558;50.922;14.068;2024-02-16T07:52:51;27.27;;;18.40;;
47796;SDS011;33558;50.922;14.068;2024-02-16T07:55:18;24.50;;;17.57;;
47796;SDS011;33558;50.922;14.068;2024-02-16T07:57:45;25.43;;;17.43;;
47796;SDS011;33558;50.922;14.068;2024-02-16T08:00:12;23.93;;;17.37;;
47796;SDS011;33558;50.922;14.068;2024-02-16T08:02:41;25.13;;;17.73;;
47796;SDS011;33558;50.922;14.068;2024-02-16T08:05:08;23.80;;;18.23;;
47796;SDS011;33558;50.922;14.068;2024-02-16T08:07:36;26.53;;;17.53;;
47796;SDS011;33558;50.922;14.068;2024-02-16T08:10:03;22.60;;;16.10;;
47796;SDS011;33558;50.922;14.068;2024-02-16T08:12:30;25.13;;;16.90;;
47796;SDS011;33558;50.922;14.068;2024-02-16T08:14:57;24.07;;;17.07;;
47796;SDS011;33558;50.922;14.068;2024-02-16T08:17:24;25.53;;;17.20;;
47796;SDS011;33558;50.922;14.068;2024-02-16T08:19:51;24.27;;;16.63;;
47796;SDS011;33558;50.922;14.068;2024-02-16T08:22:18;21.47;;;15.47;;
47796;SDS011;33558;50.922;14.068;2024-02-16T08:24:46;23.90;;;16.20;;
47796;SDS011;33558;50.922;14.068;2024-02-16T08:27:14;23.33;;;17.40;;
47796;SDS011;33558;50.922;14.068;2024-02-16T08:29:41;22.50;;;15.87;;
47796;SDS011;33558;50.922;14.068;2024-02-16T08:32:08;24.27;;;16.40;;
47796;SDS011;33558;50.922;14.068;2024-02-16T08:34:35;24.13;;;17.00;;
47796;SDS011;33558;50.922;14.068;2024-02-16T08:37:02;21.27;;;15.70;;
47796;SDS011;33558;50.922;14.068;2024-02-16T08:39:29;23.20;;;16.13;;
47796;SDS011;33558;50.922;14.068;2024-02-16T08:41:58;20.47;;;14.80;;
47796;SDS011;33558;50.922;14.068;2024-02-16T08:44:24;23.73;;;16.20;;
47796;SDS011;33558;50.922;14.068;2024-02-16T08:46:51;20.50;;;15.10;;
47796;SDS011;33558;50.922;14.068;2024-02-16T08:49:18;20.17;;;15.57;;
47796;SDS011;33558;50.922;14.068;2024-02-16T08:51:45;20.67;;;15.77;;
47796;SDS011;33558;50.922;14.068;2024-02-16T08:54:12;21.60;;;16.23;;
47796;SDS011;33558;50.922;14.068;2024-02-16T08:56:39;23.27;;;15.67;;
47796;SDS011;33558;50.922;14.068;2024-02-16T08:59:07;20.83;;;15.33;;
47796;SDS011;33558;50.922;14.068;2024-02-16T09:01:34;22.50;;;14.83;;
47796;SDS011;33558;50.922;14.068;2024-02-16T09:04:02;21.87;;;14.97;;
47796;SDS011;33558;50.922;14.068;2024-02-16T09:06:28;19.77;;;14.87;;
47796;SDS011;33558;50.922;14.068;2024-02-16T09:08:55;20.77;;;14.83;;
47796;SDS011;33558;50.922;14.068;2024-02-16T09:11:22;20.37;;;15.23;;
47796;SDS011;33558;50.922;14.068;2024-02-16T09:13:49;19.50;;;14.80;;
47796;SDS011;33558;50.922;14.068;2024-02-16T09:16:17;20.47;;;15.53;;
47796;SDS011;33558;50.922;14.068;2024-02-16T09:18:44;21.23;;;14.83;;
47796;SDS011;33558;50.922;14.068;2024-02-16T09:21:10;18.93;;;14.10;;
47796;SDS011;33558;50.922;14.068;2024-02-16T09:23:37;19.63;;;14.37;;
47796;SDS011;33558;50.922;14.068;2024-02-16T09:26:04;21.55;;;15.88;;
47796;SDS011;33558;50.922;14.068;2024-02-16T09:28:30;17.93;;;13.90;;
47796;SDS011;33558;50.922;14.068;2024-02-16T09:30:57;18.97;;;14.93;;
47796;SDS011;33558;50.922;14.068;2024-02-16T09:33:25;21.43;;;14.83;;
47796;SDS011;33558;50.922;14.068;2024-02-16T09:35:53;21.23;;;14.33;;
47796;SDS011;33558;50.922;14.068;2024-02-16T09:38:19;20.40;;;14.10;;
47796;SDS011;33558;50.922;14.068;2024-02-16T09:40:46;18.85;;;14.35;;
47796;SDS011;33558;50.922;14.068;2024-02-16T09:43:22;19.63;;;13.80;;
47796;SDS011;33558;50.922;14.068;2024-02-16T09:45:52;18.97;;;14.13;;
47796;SDS011;33558;50.922;14.068;2024-02-16T09:48:19;18.23;;;14.27;;
47796;SDS011;33558;50.922;14.068;2024-02-16T09:50:48;19.60;;;14.10;;
47796;SDS011;33558;50.922;14.068;2024-02-16T09:53:15;23.37;;;13.97;;
47796;SDS011;33558;50.922;14.068;2024-02-16T09:55:41;18.95;;;14.93;;
47796;SDS011;33558;50.922;14.068;2024-02-16T09:58:09;19.85;;;14.57;;
47796;SDS011;33558;50.922;14.068;2024-02-16T10:00:42;19.17;;;14.00;;
47796;SDS011;33558;50.922;14.068;2024-02-16T10:03:08;19.88;;;14.82;;
47796;SDS011;33558;50.922;14.068;2024-02-16T10:05:36;18.80;;;14.38;;
47796;SDS011;33558;50.922;14.068;2024-02-16T10:08:12;21.83;;;14.90;;
47796;SDS011;33558;50.922;14.068;2024-02-16T10:10:39;20.42;;;15.25;;
47796;SDS011;33558;50.922;14.068;2024-02-16T10:13:06;17.50;;;13.60;;
47796;SDS011;33558;50.922;14.068;2024-02-16T10:15:33;18.52;;;14.95;;
47796;SDS011;33558;50.922;14.068;2024-02-16T10:18:01;20.50;;;14.53;;
47796;SDS011;33558;50.922;14.068;2024-02-16T10:20:28;17.85;;;13.75;;
47796;SDS011;33558;50.922;14.068;2024-02-16T10:23:02;17.98;;;13.57;;
47796;SDS011;33558;50.922;14.068;2024-02-16T10:25:32;19.25;;;14.45;;
47796;SDS011;33558;50.922;14.068;2024-02-16T10:27:58;18.08;;;14.27;;
47796;SDS011;33558;50.922;14.068;2024-02-16T10:30:30;17.67;;;13.23;;
47796;SDS011;33558;50.922;14.068;2024-02-16T10:32:56;16.50;;;13.80;;
47796;SDS011;33558;50.922;14.068;2024-02-16T10:35:24;20.50;;;13.85;;
47796;SDS011;33558;50.922;14.068;2024-02-16T10:37:51;19.50;;;14.97;;
47796;SDS011;33558;50.922;14.068;2024-02-16T10:40:19;21.02;;;15.45;;
47796;SDS011;33558;50.922;14.068;2024-02-16T10:42:47;18.75;;;14.43;;
47796;SDS011;33558;50.922;14.068;2024-02-16T10:45:15;21.92;;;14.98;;
47796;SDS011;33558;50.922;14.068;2024-02-16T10:47:41;18.93;;;15.33;;
47796;SDS011;33558;50.922;14.068;2024-02-16T10:50:08;18.13;;;14.33;;
47796;SDS011;33558;50.922;14.068;2024-02-16T10:52:35;20.23;;;15.02;;
47796;SDS011;33558;50.922;14.068;2024-02-16T10:55:04;21.10;;;15.40;;
47796;SDS011;33558;50.922;14.068;2024-02-16T10:57:32;19.65;;;14.35;;
47796;SDS011;33558;50.922;14.068;2024-02-16T11:00:07;20.80;;;15.95;;
47796;SDS011;33558;50.922;14.068;2024-02-16T11:02:50;17.15;;;13.57;;
47796;SDS011;33558;50.922;14.068;2024-02-16T11:05:18;20.45;;;14.95;;
47796;SDS011;33558;50.922;14.068;2024-02-16T11:07:44;18.27;;;14.35;;
47796;SDS011;33558;50.922;14.068;2024-02-16T11:10:11;24.38;;;14.27;;
47796;SDS011;33558;50.922;14.068;2024-02-16T11:12:38;19.17;;;15.20;;
47796;SDS011;33558;50.922;14.068;2024-02-16T11:15:12;19.65;;;14.60;;
47796;SDS011;33558;50.922;14.068;2024-02-16T11:17:39;20.40;;;15.07;;
47796;SDS011;33558;50.922;14.068;2024-02-16T11:20:06;18.52;;;14.65;;
47796;SDS011;33558;50.922;14.068;2024-02-16T11:22:34;19.75;;;14.57;;
47796;SDS011;33558;50.922;14.068;2024-02-16T11:25:04;17.27;;;13.85;;
47796;SDS011;33558;50.922;14.068;2024-02-16T11:27:31;19.10;;;14.07;;
47796;SDS011;33558;50.922;14.068;2024-02-16T11:29:59;16.45;;;12.85;;
47796;SDS011;33558;50.922;14.068;2024-02-16T11:32:27;16.35;;;13.35;;
47796;SDS011;33558;50.922;14.068;2024-02-16T11:35:04;19.05;;;14.15;;
47796;SDS011;33558;50.922;14.068;2024-02-16T11:37:31;16.55;;;12.85;;
47796;SDS011;33558;50.922;14.068;2024-02-16T11:39:58;14.55;;;12.93;;
47796;SDS011;33558;50.922;14.068;2024-02-16T11:42:24;17.67;;;12.85;;
47796;SDS011;33558;50.922;14.068;2024-02-16T11:44:51;15.88;;;13.68;;
47796;SDS011;33558;50.922;14.068;2024-02-16T11:47:19;17.15;;;13.90;;
47796;SDS011;33558;50.922;14.068;2024-02-16T11:50:00;17.02;;;13.00;;
47796;SDS011;33558;50.922;14.068;2024-02-16T11:52:27;22.50;;;13.82;;
47796;SDS011;33558;50.922;14.068;2024-02-16T11:54:54;16.88;;;12.65;;
47796;SDS011;33558;50.922;14.068;2024-02-16T11:57:21;17.10;;;12.43;;
47796;SDS011;33558;50.922;14.068;2024-02-16T11:59:48;16.05;;;12.45;;
47796;SDS011;33558;50.922;14.068;2024-02-16T12:02:16;14.70;;;11.30;;
47796;SDS011;33558;50.922;14.068;2024-02-16T12:04:44;15.50;;;12.35;;
47796;SDS011;33558;50.922;14.068;2024-02-16T12:07:12;15.45;;;12.90;;
47796;SDS011;33558;50.922;14.068;2024-02-16T12:09:39;15.43;;;11.00;;
47796;SDS011;33558;50.922;14.068;2024-02-16T12:12:06;14.30;;;12.15;;
47796;SDS011;33558;50.922;14.068;2024-02-16T12:14:33;16.73;;;12.48;;
47796;SDS011;33558;50.922;14.068;2024-02-16T12:17:03;15.52;;;12.30;;
47796;SDS011;33558;50.922;14.068;2024-02-16T12:19:30;16.50;;;11.55;;
47796;SDS011;33558;50.922;14.068;2024-02-16T12:21:56;13.88;;;11.40;;
47796;SDS011;33558;50.922;14.068;2024-02-16T12:24:25;12.93;;;9.88;;
47796;SDS011;33558;50.922;14.068;2024-02-16T12:26:51;16.38;;;12.02;;
47796;SDS011;33558;50.922;14.068;2024-02-16T12:29:18;15.60;;;12.45;;
47796;SDS011;33558;50.922;14.068;2024-02-16T12:31:45;14.48;;;11.60;;
47796;SDS011;33558;50.922;14.068;2024-02-16T12:34:13;13.57;;;11.45;;
47796;SDS011;33558;50.922;14.068;2024-02-16T12:36:40;16.38;;;11.68;;
47796;SDS011;33558;50.922;14.068;2024-02-16T12:39:07;14.70;;;11.90;;
47796;SDS011;33558;50.922;14.068;2024-02-16T12:41:38;14.70;;;11.52;;
47796;SDS011;33558;50.922;14.068;2024-02-16T12:44:06;14.00;;;11.18;;
47796;SDS011;33558;50.922;14.068;2024-02-16T12:46:33;16.63;;;12.52;;
47796;SDS011;33558;50.922;14.068;2024-02-16T12:48:59;16.98;;;13.43;;
47796;SDS011;33558;50.922;14.068;2024-02-16T12:51:26;16.05;;;13.07;;
47796;SDS011;33558;50.922;14.068;2024-02-16T12:53:53;15.88;;;12.38;;
47796;SDS011;33558;50.922;14.068;2024-02-16T12:56:19;15.13;;;12.45;;
47796;SDS011;33558;50.922;14.068;2024-02-16T12:58:48;17.13;;;13.52;;
47796;SDS011;33558;50.922;14.068;2024-02-16T13:01:15;15.90;;;13.07;;
47796;SDS011;33558;50.922;14.068;2024-02-16T13:03:43;16.75;;;14.13;;
47796;SDS011;33558;50.922;14.068;2024-02-16T13:06:10;18.08;;;14.40;;
47796;SDS011;33558;50.922;14.068;2024-02-16T13:08:36;16.85;;;12.90;;
47796;SDS011;33558;50.922;14.068;2024-02-16T13:11:03;16.15;;;13.73;;
47796;SDS011;33558;50.922;14.068;2024-02-16T13:13:30;15.98;;;12.68;;
47796;SDS011;33558;50.922;14.068;2024-02-16T13:15:58;18.75;;;13.38;;
47796;SDS011;33558;50.922;14.068;2024-02-16T13:18:25;15.95;;;13.77;;
47796;SDS011;33558;50.922;14.068;2024-02-16T13:20:52;13.90;;;11.95;;
47796;SDS011;33558;50.922;14.068;2024-02-16T13:23:18;15.50;;;12.23;;
47796;SDS011;33558;50.922;14.068;2024-02-16T13:25:45;17.48;;;13.60;;
47796;SDS011;33558;50.922;14.068;2024-02-16T13:28:12;16.27;;;13.73;;
47796;SDS011;33558;50.922;14.068;2024-02-16T13:30:38;17.02;;;13.93;;
47796;SDS011;33558;50.922;14.068;2024-02-16T13:33:06;17.10;;;14.52;;
47796;SDS011;33558;50.922;14.068;2024-02-16T13:35:34;17.05;;;13.27;;
47796;SDS011;33558;50.922;14.068;2024-02-16T13:38:03;16.77;;;13.35;;
47796;SDS011;33558;50.922;14.068;2024-02-16T13:40:30;17.65;;;13.30;;
47796;SDS011;33558;50.922;14.068;2024-02-16T13:42:58;16.85;;;14.43;;
47796;SDS011;33558;50.922;14.068;2024-02-16T13:45:27;18.92;;;14.68;;
47796;SDS011;33558;50.922;14.068;2024-02-16T13:47:54;18.90;;;14.40;;
47796;SDS011;33558;50.922;14.068;2024-02-16T13:50:24;17.67;;;14.32;;
47796;SDS011;33558;50.922;14.068;2024-02-16T13:52:51;20.10;;;14.68;;
47796;SDS011;33558;50.922;14.068;2024-02-16T13:55:17;19.38;;;15.32;;
47796;SDS011;33558;50.922;14.068;2024-02-16T13:57:44;21.30;;;15.02;;
47796;SDS011;33558;50.922;14.068;2024-02-16T14:00:11;16.00;;;13.80;;
47796;SDS011;33558;50.922;14.068;2024-02-16T14:02:41;18.08;;;14.95;;
47796;SDS011;33558;50.922;14.068;2024-02-16T14:05:09;18.73;;;13.90;;
47796;SDS011;33558;50.922;14.068;2024-02-16T14:07:37;18.52;;;14.27;;
47796;SDS011;33558;50.922;14.068;2024-02-16T14:10:04;17.90;;;14.85;;